createdAt,value
2019-04-14T00:00:12.063Z,94.56
2019-04-14T00:01:12.980Z,94.81
2019-04-14T00:02:12.039Z,95.43
2019-04-14T00:03:12.984Z,95.70
2019-04-14T00:04:12.032Z,94.66
2019-04-14T00:05:12.516Z,95.39
2019-04-14T00:06:11.997Z,95.29
2019-04-14T00:07:12.246Z,94.82
2019-04-14T00:08:12.001Z,94.72
2019-04-14T00:09:12.013Z,94.87
2019-04-14T00:10:11.952Z,95.29
2019-04-14T00:11:12.597Z,94.82
2019-04-14T00:12:12.136Z,94.66
2019-04-14T00:13:13.088Z,95.39
2019-04-14T00:14:11.916Z,95.29
2019-04-14T00:15:23.388Z,94.76
2019-04-14T00:16:14.113Z,95.75
2019-04-14T00:17:12.967Z,95.08
2019-04-14T00:18:11.915Z,96.01
2019-04-14T00:19:12.981Z,95.60
2019-04-14T00:20:11.930Z,96.16
2019-04-14T00:21:12.949Z,95.95
2019-04-14T00:22:11.869Z,95.75
2019-04-14T00:23:12.976Z,96.58
2019-04-14T00:24:11.808Z,96.26
2019-04-14T00:25:12.933Z,97.10
2019-04-14T00:26:11.830Z,96.58
2019-04-14T00:27:12.808Z,96.89
2019-04-14T00:28:11.801Z,96.89
2019-04-14T00:29:13.092Z,96.58
2019-04-14T00:30:11.919Z,96.58
2019-04-14T00:31:11.728Z,96.58
2019-04-14T00:32:11.799Z,96.79
2019-04-14T00:33:12.773Z,97.10
2019-04-14T00:34:11.694Z,97.06
2019-04-14T00:35:12.486Z,97.20
2019-04-14T00:36:11.678Z,97.27
2019-04-14T00:37:12.110Z,97.47
2019-04-14T00:38:12.972Z,97.16
2019-04-14T00:39:11.829Z,97.27
2019-04-14T00:40:12.809Z,97.37
2019-04-14T00:41:11.682Z,96.95
2019-04-14T00:42:12.678Z,96.75
2019-04-14T00:43:11.646Z,96.95
2019-04-14T00:44:12.431Z,96.85
2019-04-14T00:45:11.579Z,96.70
2019-04-14T00:46:12.526Z,96.70
2019-04-14T00:47:11.566Z,96.85
2019-04-14T00:48:14.972Z,96.80
2019-04-14T00:49:13.610Z,96.80
2019-04-14T00:50:12.531Z,96.80
2019-04-14T00:51:11.516Z,96.59
2019-04-14T00:52:12.463Z,96.28
2019-04-14T00:53:12.065Z,96.28
2019-04-14T00:54:13.231Z,96.70
2019-04-14T00:55:11.843Z,96.33
2019-04-14T00:56:11.469Z,97.01
2019-04-14T00:57:11.600Z,96.08
2019-04-14T00:58:12.677Z,96.28
2019-04-14T00:59:11.491Z,96.18
2019-04-14T01:00:12.712Z,96.39
2019-04-14T01:01:11.417Z,95.66
2019-04-14T01:02:12.381Z,95.91
2019-04-14T01:03:11.390Z,95.91
2019-04-14T01:04:12.249Z,95.70
2019-04-14T01:05:11.430Z,95.70
2019-04-14T01:06:12.222Z,95.81
2019-04-14T01:07:11.342Z,96.49
2019-04-14T01:08:11.995Z,95.91
2019-04-14T01:09:11.422Z,95.91
2019-04-14T01:10:11.318Z,96.01
2019-04-14T01:11:11.720Z,96.01
2019-04-14T01:12:11.332Z,95.70
2019-04-14T01:13:12.715Z,96.01
2019-04-14T01:14:12.558Z,96.12
2019-04-14T01:15:11.579Z,95.91
2019-04-14T01:16:15.432Z,95.81
2019-04-14T01:17:13.400Z,96.12
2019-04-14T01:18:12.431Z,96.12
2019-04-14T01:19:11.330Z,95.60
2019-04-14T01:20:12.401Z,95.95
2019-04-14T01:21:11.215Z,96.01
2019-04-14T01:22:11.992Z,95.75
2019-04-14T01:23:11.213Z,95.75
2019-04-14T01:24:14.146Z,96.69
2019-04-14T01:25:11.156Z,96.48
2019-04-14T01:26:11.761Z,97.10
2019-04-14T01:27:12.375Z,97.10
2019-04-14T01:28:11.352Z,96.69
2019-04-14T01:29:12.212Z,96.89
2019-04-14T01:30:11.273Z,97.00
2019-04-14T01:31:12.004Z,96.69
2019-04-14T01:32:11.254Z,96.89
2019-04-14T01:33:11.899Z,96.69
2019-04-14T01:34:11.079Z,97.00
2019-04-14T01:35:11.725Z,96.26
2019-04-14T01:36:11.029Z,97.31
2019-04-14T01:37:11.566Z,96.37
2019-04-14T01:38:11.015Z,96.69
2019-04-14T01:39:11.159Z,96.37
2019-04-14T01:40:12.041Z,96.69
2019-04-14T01:41:11.018Z,96.79
2019-04-14T01:42:11.623Z,96.89
2019-04-14T01:43:10.967Z,97.00
2019-04-14T01:44:11.273Z,97.20
2019-04-14T01:45:12.099Z,96.69
2019-04-14T01:46:16.574Z,96.37
2019-04-14T01:47:11.952Z,97.00
2019-04-14T01:48:10.955Z,96.69
2019-04-14T01:49:11.540Z,96.58
2019-04-14T01:50:10.964Z,96.58
2019-04-14T01:51:11.303Z,96.48
2019-04-14T01:52:10.931Z,96.79
2019-04-14T01:53:11.937Z,96.89
2019-04-14T01:54:10.956Z,97.00
2019-04-14T01:55:11.197Z,96.79
2019-04-14T01:56:10.872Z,96.94
2019-04-14T01:57:11.082Z,96.69
2019-04-14T01:58:12.123Z,96.69
2019-04-14T01:59:10.861Z,97.10
2019-04-14T02:00:11.970Z,97.10
2019-04-14T02:01:10.829Z,96.69
2019-04-14T02:02:11.887Z,97.00
2019-04-14T02:03:10.804Z,97.10
2019-04-14T02:04:11.673Z,96.26
2019-04-14T02:05:10.834Z,96.26
2019-04-14T02:06:11.437Z,96.37
2019-04-14T02:07:10.768Z,96.16
2019-04-14T02:08:11.224Z,96.26
2019-04-14T02:09:12.099Z,96.58
2019-04-14T02:10:10.784Z,96.37
2019-04-14T02:11:11.626Z,96.31
2019-04-14T02:12:10.704Z,96.62
2019-04-14T02:13:11.496Z,96.89
2019-04-14T02:14:10.685Z,96.52
2019-04-14T02:15:11.863Z,96.42
2019-04-14T02:16:21.097Z,96.52
2019-04-14T02:17:11.662Z,96.42
2019-04-14T02:18:11.995Z,96.52
2019-04-14T02:19:10.981Z,96.42
2019-04-14T02:20:11.849Z,96.83
2019-04-14T02:21:10.811Z,97.14
2019-04-14T02:22:11.685Z,97.14
2019-04-14T02:23:10.579Z,96.88
2019-04-14T02:24:11.345Z,96.88
2019-04-14T02:25:10.605Z,96.88
2019-04-14T02:26:11.217Z,96.67
2019-04-14T02:27:11.953Z,96.56
2019-04-14T02:28:11.240Z,96.98
2019-04-14T02:29:10.525Z,97.19
2019-04-14T02:30:17.388Z,97.50
2019-04-14T02:31:24.814Z,96.88
2019-04-14T02:33:40.278Z,97.30
2019-04-14T02:35:49.762Z,96.77
2019-04-14T02:36:41.640Z,96.67
2019-04-14T02:37:49.182Z,97.30
2019-04-14T02:38:49.340Z,97.71
2019-04-14T02:39:38.968Z,97.71
2019-04-14T02:43:37.980Z,97.61
2019-04-14T02:44:38.275Z,97.71
2019-04-14T02:48:48.056Z,97.09
2019-04-14T02:50:08.763Z,97.40
2019-04-14T02:50:30.649Z,97.19
2019-04-14T02:51:38.474Z,96.98
2019-04-14T02:52:34.903Z,97.40
2019-04-14T02:53:44.296Z,97.30
2019-04-14T02:54:43.653Z,96.77
2019-04-14T02:55:46.819Z,96.88
2019-04-14T02:56:40.141Z,96.92
2019-04-14T02:59:35.536Z,97.75
2019-04-14T03:01:38.769Z,96.92
2019-04-14T03:04:33.922Z,98.18
2019-04-14T03:05:44.722Z,97.30
2019-04-14T03:06:35.365Z,98.18
2019-04-14T03:07:41.992Z,97.24
2019-04-14T03:08:45.764Z,97.55
2019-04-14T03:09:42.265Z,97.55
2019-04-14T03:11:44.463Z,97.28
2019-04-14T03:13:35.149Z,98.07
2019-04-14T03:14:40.240Z,98.18
2019-04-14T03:15:43.182Z,98.28
2019-04-14T03:16:46.320Z,98.38
2019-04-14T03:17:39.125Z,97.55
2019-04-14T03:19:44.505Z,97.24
2019-04-14T03:20:31.862Z,97.28
2019-04-14T03:21:36.320Z,98.01
2019-04-14T03:24:32.914Z,97.59
2019-04-14T03:25:30.128Z,98.32
2019-04-14T03:26:38.236Z,98.43
2019-04-14T03:27:41.897Z,98.43
2019-04-14T03:29:37.115Z,98.11
2019-04-14T03:30:58.547Z,97.75
2019-04-14T03:33:13.859Z,97.80
2019-04-14T03:34:39.239Z,98.01
2019-04-14T03:37:16.372Z,98.32
2019-04-14T03:37:45.329Z,98.11
2019-04-14T03:38:34.454Z,98.32
2019-04-14T03:39:38.583Z,98.11
2019-04-14T03:42:48.555Z,98.53
2019-04-14T03:43:39.236Z,98.53
2019-04-14T03:44:45.010Z,98.43
2019-04-14T03:45:42.891Z,98.49
2019-04-14T03:47:34.452Z,98.49
2019-04-14T03:49:37.439Z,98.38
2019-04-14T03:50:37.382Z,98.28
2019-04-14T03:51:52.491Z,97.97
2019-04-14T03:52:37.679Z,97.75
2019-04-14T03:54:25.840Z,97.97
2019-04-14T03:55:25.041Z,98.28
2019-04-14T03:56:14.388Z,97.97
2019-04-14T03:57:10.442Z,98.07
2019-04-14T03:58:11.489Z,97.55
2019-04-14T03:59:10.531Z,98.07
2019-04-14T04:00:09.656Z,98.13
2019-04-14T04:01:10.528Z,97.44
2019-04-14T04:02:09.718Z,98.18
2019-04-14T04:03:10.560Z,97.97
2019-04-14T04:04:09.702Z,97.86
2019-04-14T04:05:10.623Z,98.07
2019-04-14T04:06:09.730Z,97.40
2019-04-14T04:07:10.315Z,97.50
2019-04-14T04:08:09.443Z,97.40
2019-04-14T04:09:10.500Z,98.02
2019-04-14T04:10:09.500Z,97.24
2019-04-14T04:11:10.470Z,97.50
2019-04-14T04:12:09.634Z,97.81
2019-04-14T04:13:10.462Z,97.34
2019-04-14T04:14:09.644Z,97.34
2019-04-14T04:15:10.401Z,97.34
2019-04-14T04:16:09.401Z,98.18
2019-04-14T04:17:10.129Z,97.24
2019-04-14T04:18:09.314Z,97.24
2019-04-14T04:19:13.571Z,98.07
2019-04-14T04:20:11.004Z,97.75
2019-04-14T04:21:09.517Z,98.18
2019-04-14T04:22:13.541Z,98.13
2019-04-14T04:23:09.590Z,97.71
2019-04-14T04:24:09.245Z,97.71
2019-04-14T04:25:09.474Z,97.81
2019-04-14T04:26:10.221Z,97.71
2019-04-14T04:27:09.254Z,97.55
2019-04-14T04:28:10.186Z,97.61
2019-04-14T04:29:09.369Z,97.50
2019-04-14T04:30:10.214Z,97.50
2019-04-14T04:31:09.212Z,97.30
2019-04-14T04:32:09.950Z,97.40
2019-04-14T04:33:09.187Z,97.50
2019-04-14T04:34:09.780Z,96.98
2019-04-14T04:35:09.122Z,97.30
2019-04-14T04:36:09.533Z,97.19
2019-04-14T04:37:10.384Z,97.09
2019-04-14T04:38:09.526Z,97.09
2019-04-14T04:39:10.299Z,97.19
2019-04-14T04:40:09.405Z,97.09
2019-04-14T04:41:10.147Z,96.88
2019-04-14T04:42:09.227Z,96.77
2019-04-14T04:43:10.094Z,96.77
2019-04-14T04:44:09.439Z,96.98
2019-04-14T04:45:10.289Z,96.98
2019-04-14T04:46:09.150Z,96.98
2019-04-14T04:47:09.949Z,96.56
2019-04-14T04:48:09.083Z,96.46
2019-04-14T04:49:15.138Z,96.46
2019-04-14T04:50:10.766Z,96.56
2019-04-14T04:51:09.334Z,96.36
2019-04-14T04:52:11.435Z,96.36
2019-04-14T04:53:09.128Z,96.56
2019-04-14T04:54:08.922Z,96.77
2019-04-14T04:55:08.971Z,95.98
2019-04-14T04:56:10.036Z,95.98
2019-04-14T04:57:08.981Z,95.73
2019-04-14T04:58:10.075Z,96.04
2019-04-14T04:59:09.782Z,95.73
2019-04-14T05:00:09.261Z,95.94
2019-04-14T05:01:09.949Z,95.31
2019-04-14T05:02:09.108Z,95.31
2019-04-14T05:03:09.984Z,95.94
2019-04-14T05:04:09.042Z,95.21
2019-04-14T05:05:09.825Z,95.31
2019-04-14T05:06:09.238Z,94.79
2019-04-14T05:07:09.983Z,94.43
2019-04-14T05:08:08.961Z,94.54
2019-04-14T05:09:09.883Z,94.75
2019-04-14T05:10:09.015Z,94.02
2019-04-14T05:11:09.686Z,93.60
2019-04-14T05:12:09.128Z,93.60
2019-04-14T05:13:09.392Z,93.40
2019-04-14T05:14:08.843Z,93.29
2019-04-14T05:15:09.451Z,93.60
2019-04-14T05:16:08.705Z,93.29
2019-04-14T05:17:08.746Z,92.97
2019-04-14T05:18:09.115Z,92.52
2019-04-14T05:19:18.327Z,92.46
2019-04-14T05:20:09.696Z,92.52
2019-04-14T05:21:08.642Z,92.21
2019-04-14T05:22:09.261Z,91.68
2019-04-14T05:23:08.719Z,92.00
2019-04-14T05:24:09.297Z,91.89
2019-04-14T05:25:08.590Z,91.64
2019-04-14T05:26:09.212Z,91.12
2019-04-14T05:27:08.638Z,91.12
2019-04-14T05:28:09.131Z,90.81
2019-04-14T05:29:09.867Z,91.02
2019-04-14T05:30:08.987Z,91.22
2019-04-14T05:31:09.689Z,90.70
2019-04-14T05:32:08.825Z,90.81
2019-04-14T05:33:09.571Z,89.87
2019-04-14T05:34:08.670Z,90.56
2019-04-14T05:35:09.643Z,89.62
2019-04-14T05:36:08.647Z,89.52
2019-04-14T05:37:09.280Z,89.56
2019-04-14T05:38:10.403Z,90.20
2019-04-14T05:39:08.979Z,88.54
2019-04-14T05:40:08.517Z,88.71
2019-04-14T05:41:09.133Z,88.43
2019-04-14T05:42:13.208Z,88.43
2019-04-14T05:43:09.429Z,88.37
2019-04-14T05:44:08.378Z,88.58
2019-04-14T05:45:08.737Z,88.79
2019-04-14T05:46:08.440Z,88.81
2019-04-14T05:47:08.718Z,88.40
2019-04-14T05:48:09.625Z,87.35
2019-04-14T05:49:08.600Z,87.32
2019-04-14T05:50:09.411Z,87.11
2019-04-14T05:51:08.564Z,85.93
2019-04-14T05:52:08.307Z,85.82
2019-04-14T05:53:08.682Z,85.51
2019-04-14T05:54:08.394Z,85.61
2019-04-14T05:55:08.809Z,84.47
2019-04-14T05:56:08.320Z,84.51
2019-04-14T05:57:08.826Z,85.65
2019-04-14T05:58:08.265Z,85.24
2019-04-14T05:59:08.880Z,85.10
2019-04-14T06:00:08.288Z,84.01
2019-04-14T06:01:08.986Z,83.60
2019-04-14T06:02:09.302Z,84.33
2019-04-14T06:03:08.248Z,83.77
2019-04-14T06:04:09.257Z,83.36
2019-04-14T06:05:09.144Z,83.18
2019-04-14T06:06:08.202Z,83.04
2019-04-14T06:07:08.128Z,82.21
2019-04-14T06:08:08.179Z,83.04
2019-04-14T06:09:08.190Z,82.46
2019-04-14T06:10:08.133Z,82.84
2019-04-14T06:11:08.144Z,82.21
2019-04-14T06:12:08.082Z,81.38
2019-04-14T06:13:08.101Z,81.70
2019-04-14T06:14:08.062Z,81.84
2019-04-14T06:15:08.100Z,82.11
2019-04-14T06:16:08.037Z,81.35
2019-04-14T06:17:08.219Z,81.72
2019-04-14T06:18:08.061Z,81.06
2019-04-14T06:19:08.046Z,79.92
2019-04-14T06:20:07.993Z,79.96
2019-04-14T06:21:08.082Z,79.61
2019-04-14T06:22:07.985Z,79.65
2019-04-14T06:23:08.014Z,80.31
2019-04-14T06:24:07.958Z,81.59
2019-04-14T06:25:07.944Z,80.89
2019-04-14T06:26:07.951Z,80.23
2019-04-14T06:27:07.914Z,79.16
2019-04-14T06:28:07.944Z,78.75
2019-04-14T06:29:07.923Z,79.41
2019-04-14T06:30:08.153Z,78.99
2019-04-14T06:31:09.022Z,78.61
2019-04-14T06:32:07.880Z,78.85
2019-04-14T06:33:07.872Z,77.98
2019-04-14T06:34:07.934Z,77.57
2019-04-14T06:35:07.851Z,77.50
2019-04-14T06:36:07.825Z,77.98
2019-04-14T06:37:07.820Z,77.01
2019-04-14T06:38:07.863Z,76.91
2019-04-14T06:39:07.786Z,74.98
2019-04-14T06:40:07.772Z,75.40
2019-04-14T06:41:07.764Z,75.92
2019-04-14T06:42:07.752Z,76.78
2019-04-14T06:43:07.826Z,75.53
2019-04-14T06:44:07.723Z,74.29
2019-04-14T06:45:07.749Z,72.85
2019-04-14T06:46:07.700Z,74.95
2019-04-14T06:47:07.707Z,76.09
2019-04-14T06:48:07.715Z,75.53
2019-04-14T06:49:07.681Z,74.91
2019-04-14T06:50:07.716Z,74.71
2019-04-14T06:51:07.653Z,74.60
2019-04-14T06:52:07.656Z,74.26
2019-04-14T06:53:07.654Z,73.47
2019-04-14T06:54:07.657Z,71.64
2019-04-14T06:55:07.630Z,71.57
2019-04-14T06:56:07.598Z,71.92
2019-04-14T06:57:07.594Z,72.78
2019-04-14T06:58:07.696Z,73.05
2019-04-14T06:59:07.566Z,72.57
2019-04-14T07:00:07.549Z,73.22
2019-04-14T07:01:07.537Z,73.12
2019-04-14T07:02:08.683Z,74.74
2019-04-14T07:03:07.548Z,73.16
2019-04-14T07:04:07.498Z,72.74
2019-04-14T07:05:07.530Z,72.57
2019-04-14T07:06:07.486Z,74.74
2019-04-14T07:07:07.505Z,72.30
2019-04-14T07:08:07.525Z,72.47
2019-04-14T07:09:07.449Z,72.57
2019-04-14T07:10:07.491Z,73.02
2019-04-14T07:11:07.444Z,73.05
2019-04-14T07:12:07.563Z,72.57
2019-04-14T07:13:07.431Z,70.86
2019-04-14T07:14:07.397Z,69.89
2019-04-14T07:15:07.443Z,69.65
2019-04-14T07:16:07.421Z,69.75
2019-04-14T07:17:07.363Z,69.13
2019-04-14T07:18:07.379Z,69.85
2019-04-14T07:19:07.344Z,69.27
2019-04-14T07:20:07.339Z,69.78
2019-04-14T07:21:07.397Z,70.06
2019-04-14T07:22:07.306Z,69.65
2019-04-14T07:23:07.326Z,69.24
2019-04-14T07:24:07.315Z,70.13
2019-04-14T07:25:07.285Z,69.65
2019-04-14T07:26:07.264Z,69.24
2019-04-14T07:27:07.300Z,69.99
2019-04-14T07:28:07.274Z,69.34
2019-04-14T07:29:07.247Z,68.90
2019-04-14T07:30:07.242Z,69.07
2019-04-14T07:31:07.223Z,67.29
2019-04-14T07:32:07.212Z,67.52
2019-04-14T07:33:07.214Z,67.66
2019-04-14T07:34:07.172Z,68.17
2019-04-14T07:35:07.216Z,68.41
2019-04-14T07:36:07.160Z,67.52
2019-04-14T07:37:07.199Z,66.33
2019-04-14T07:38:07.271Z,66.28
2019-04-14T07:39:07.158Z,66.84
2019-04-14T07:40:07.106Z,64.96
2019-04-14T07:41:07.106Z,66.12
2019-04-14T07:42:07.085Z,66.40
2019-04-14T07:43:07.188Z,65.92
2019-04-14T07:44:07.077Z,65.89
2019-04-14T07:45:07.051Z,66.16
2019-04-14T07:46:07.076Z,65.44
2019-04-14T07:47:07.046Z,66.13
2019-04-14T07:48:07.022Z,64.59
2019-04-14T07:49:07.128Z,64.69
2019-04-14T07:50:14.537Z,64.59
2019-04-14T07:51:08.002Z,64.36
2019-04-14T07:52:07.019Z,64.36
2019-04-14T07:53:06.990Z,65.08
2019-04-14T07:54:07.020Z,63.46
2019-04-14T07:55:06.946Z,64.89
2019-04-14T07:56:06.959Z,65.40
2019-04-14T07:57:06.975Z,65.58
2019-04-14T07:58:06.964Z,65.47
2019-04-14T07:59:06.937Z,65.83
2019-04-14T08:00:06.898Z,64.93
2019-04-14T08:01:06.941Z,64.76
2019-04-14T08:02:06.892Z,64.14
2019-04-14T08:03:06.906Z,64.83
2019-04-14T08:04:06.947Z,65.16
2019-04-14T08:05:06.840Z,65.26
2019-04-14T08:06:06.864Z,64.72
2019-04-14T08:07:06.833Z,64.72
2019-04-14T08:08:06.805Z,64.01
2019-04-14T08:09:06.810Z,63.50
2019-04-14T08:10:06.809Z,62.37
2019-04-14T08:11:06.905Z,64.63
2019-04-14T08:12:06.781Z,62.55
2019-04-14T08:13:06.817Z,62.21
2019-04-14T08:14:06.759Z,61.90
2019-04-14T08:15:15.623Z,62.74
2019-04-14T08:16:06.724Z,60.92
2019-04-14T08:17:06.746Z,60.98
2019-04-14T08:18:06.737Z,61.60
2019-04-14T08:19:06.734Z,61.65
2019-04-14T08:20:10.681Z,63.24
2019-04-14T08:21:06.721Z,60.95
2019-04-14T08:22:06.653Z,61.77
2019-04-14T08:23:06.669Z,60.88
2019-04-14T08:24:06.689Z,60.10
2019-04-14T08:25:06.656Z,60.64
2019-04-14T08:26:06.625Z,60.00
2019-04-14T08:27:06.632Z,59.46
2019-04-14T08:28:06.632Z,60.13
2019-04-14T08:29:06.629Z,61.85
2019-04-14T08:30:06.650Z,59.69
2019-04-14T08:31:06.564Z,60.21
2019-04-14T08:32:06.606Z,60.49
2019-04-14T08:33:06.518Z,59.46
2019-04-14T08:34:06.509Z,58.89
2019-04-14T08:35:08.286Z,59.20
2019-04-14T08:36:06.600Z,58.37
2019-04-14T08:37:06.490Z,54.10
2019-04-14T08:38:06.478Z,56.95
2019-04-14T08:39:06.496Z,59.38
2019-04-14T08:40:06.560Z,58.77
2019-04-14T08:41:06.483Z,59.48
2019-04-14T08:42:06.515Z,59.87
2019-04-14T08:43:06.438Z,59.33
2019-04-14T08:44:06.484Z,58.79
2019-04-14T08:45:06.440Z,58.38
2019-04-14T08:46:06.442Z,58.28
2019-04-14T08:47:06.388Z,56.26
2019-04-14T08:48:06.373Z,58.03
2019-04-14T08:49:06.379Z,58.10
2019-04-14T08:50:07.106Z,56.15
2019-04-14T08:51:06.386Z,57.48
2019-04-14T08:52:06.344Z,56.79
2019-04-14T08:53:06.332Z,55.49
2019-04-14T08:54:06.293Z,56.61
2019-04-14T08:55:07.226Z,57.25
2019-04-14T08:56:06.267Z,56.84
2019-04-14T08:57:06.263Z,56.69
2019-04-14T08:58:06.298Z,57.28
2019-04-14T08:59:06.355Z,57.89
2019-04-14T09:00:06.273Z,57.35
2019-04-14T09:01:06.269Z,55.82
2019-04-14T09:02:06.202Z,57.20
2019-04-14T09:03:06.231Z,57.64
2019-04-14T09:04:06.271Z,57.38
2019-04-14T09:05:06.171Z,55.72
2019-04-14T09:06:06.194Z,56.95
2019-04-14T09:07:06.192Z,57.31
2019-04-14T09:08:06.278Z,56.30
2019-04-14T09:09:07.482Z,57.61
2019-04-14T09:10:06.166Z,56.28
2019-04-14T09:11:06.165Z,54.10
2019-04-14T09:12:15.307Z,53.21
2019-04-14T09:13:07.136Z,53.69
2019-04-14T09:14:06.125Z,54.61
2019-04-14T09:15:06.135Z,54.80
2019-04-14T09:16:06.610Z,53.52
2019-04-14T09:17:06.089Z,51.91
2019-04-14T09:18:06.063Z,52.49
2019-04-14T09:19:07.878Z,53.49
2019-04-14T09:20:06.014Z,51.48
2019-04-14T09:21:06.116Z,51.01
2019-04-14T09:22:06.026Z,50.99
2019-04-14T09:23:05.989Z,50.56
2019-04-14T09:24:05.971Z,51.45
2019-04-14T09:25:06.058Z,52.93
2019-04-14T09:26:06.009Z,50.83
2019-04-14T09:27:06.004Z,49.60
2019-04-14T09:28:05.944Z,50.75
2019-04-14T09:29:05.932Z,51.73
2019-04-14T09:30:05.946Z,51.75
2019-04-14T09:31:05.925Z,51.95
2019-04-14T09:32:05.991Z,51.47
2019-04-14T09:33:05.898Z,51.62
2019-04-14T09:34:05.871Z,51.48
2019-04-14T09:35:05.867Z,48.00
2019-04-14T09:36:05.890Z,48.82
2019-04-14T09:37:05.831Z,48.49
2019-04-14T09:38:05.886Z,47.34
2019-04-14T09:39:05.828Z,47.88
2019-04-14T09:40:05.898Z,47.02
2019-04-14T09:41:05.814Z,48.92
2019-04-14T09:42:05.883Z,46.98
2019-04-14T09:43:05.846Z,46.98
2019-04-14T09:44:05.805Z,47.16
2019-04-14T09:45:05.824Z,47.39
2019-04-14T09:46:05.784Z,47.16
2019-04-14T09:47:05.738Z,47.55
2019-04-14T09:48:05.701Z,45.32
2019-04-14T09:49:05.793Z,46.26
2019-04-14T09:50:05.686Z,47.17
2019-04-14T09:51:06.630Z,47.15
2019-04-14T09:52:05.798Z,46.62
2019-04-14T09:53:05.659Z,47.08
2019-04-14T09:54:05.649Z,47.32
2019-04-14T09:55:05.639Z,43.88
2019-04-14T09:56:05.674Z,46.02
2019-04-14T09:57:05.630Z,46.22
2019-04-14T09:58:05.647Z,46.80
2019-04-14T09:59:05.596Z,47.31
2019-04-14T10:00:05.592Z,45.67
2019-04-14T10:01:05.590Z,45.65
2019-04-14T10:02:05.589Z,47.52
2019-04-14T10:03:05.586Z,46.71
2019-04-14T10:04:05.530Z,44.87
2019-04-14T10:05:05.542Z,44.37
2019-04-14T10:06:05.531Z,43.91
2019-04-14T10:07:06.214Z,43.79
2019-04-14T10:08:05.478Z,43.04
2019-04-14T10:09:05.504Z,45.73
2019-04-14T10:10:05.463Z,45.32
2019-04-14T10:11:05.474Z,46.14
2019-04-14T10:12:07.155Z,45.61
2019-04-14T10:13:05.446Z,45.28
2019-04-14T10:14:05.447Z,47.00
2019-04-14T10:15:05.503Z,43.51
2019-04-14T10:16:05.442Z,44.08
2019-04-14T10:17:13.519Z,43.24
2019-04-14T10:18:05.374Z,43.16
2019-04-14T10:19:05.412Z,42.83
2019-04-14T10:20:05.367Z,43.44
2019-04-14T10:21:16.929Z,45.49
2019-04-14T10:22:06.363Z,47.93
2019-04-14T10:23:05.437Z,47.23
2019-04-14T10:24:05.375Z,46.49
2019-04-14T10:25:05.346Z,44.57
2019-04-14T10:26:05.299Z,43.73
2019-04-14T10:27:05.390Z,45.47
2019-04-14T10:28:05.357Z,48.07
2019-04-14T10:29:05.268Z,47.41
2019-04-14T10:30:05.254Z,45.28
2019-04-14T10:31:05.273Z,44.12
2019-04-14T10:32:11.137Z,43.18
2019-04-14T10:33:05.316Z,43.14
2019-04-14T10:34:05.206Z,40.77
2019-04-14T10:35:05.255Z,41.47
2019-04-14T10:36:05.292Z,43.43
2019-04-14T10:37:05.208Z,43.32
2019-04-14T10:38:05.315Z,44.75
2019-04-14T10:39:05.225Z,43.20
2019-04-14T10:40:06.173Z,43.29
2019-04-14T10:41:05.130Z,45.39
2019-04-14T10:42:44.294Z,44.57
2019-04-14T10:43:05.165Z,43.35
2019-04-14T10:44:05.169Z,44.31
2019-04-14T10:45:05.149Z,43.18
2019-04-14T10:46:05.142Z,41.07
2019-04-14T10:47:11.149Z,43.16
2019-04-14T10:48:05.064Z,42.14
2019-04-14T10:49:05.078Z,42.77
2019-04-14T10:50:05.133Z,43.00
2019-04-14T10:51:05.018Z,43.41
2019-04-14T10:52:05.076Z,43.90
2019-04-14T10:53:05.127Z,43.23
2019-04-14T10:54:05.036Z,45.14
2019-04-14T10:55:04.981Z,47.03
2019-04-14T10:56:04.994Z,48.09
2019-04-14T10:57:17.678Z,47.14
2019-04-14T10:58:04.953Z,45.45
2019-04-14T10:59:04.946Z,47.89
2019-04-14T11:00:05.139Z,49.44
2019-04-14T11:01:04.989Z,48.40
2019-04-14T11:02:05.634Z,48.76
2019-04-14T11:03:04.942Z,47.97
2019-04-14T11:04:07.818Z,46.57
2019-04-14T11:05:04.870Z,43.32
2019-04-14T11:06:04.967Z,42.88
2019-04-14T11:07:06.765Z,41.35
2019-04-14T11:08:04.832Z,42.08
2019-04-14T11:09:04.874Z,45.47
2019-04-14T11:10:04.810Z,46.44
2019-04-14T11:11:04.845Z,44.87
2019-04-14T11:12:21.224Z,42.61
2019-04-14T11:13:04.811Z,41.70
2019-04-14T11:14:04.765Z,40.91
2019-04-14T11:15:04.762Z,40.19
2019-04-14T11:16:04.748Z,40.88
2019-04-14T11:17:05.261Z,40.91
2019-04-14T11:18:04.765Z,40.83
2019-04-14T11:19:04.718Z,40.77
2019-04-14T11:20:04.775Z,40.39
2019-04-14T11:21:04.695Z,40.80
2019-04-14T11:22:05.148Z,40.99
2019-04-14T11:23:04.714Z,40.54
2019-04-14T11:24:04.693Z,39.87
2019-04-14T11:25:04.642Z,39.81
2019-04-14T11:26:04.731Z,38.20
2019-04-14T11:27:04.693Z,37.80
2019-04-14T11:28:04.619Z,38.43
2019-04-14T11:29:04.632Z,38.76
2019-04-14T11:30:04.612Z,38.73
2019-04-14T11:31:04.613Z,38.53
2019-04-14T11:32:04.629Z,39.90
2019-04-14T11:33:04.597Z,42.94
2019-04-14T11:34:04.549Z,41.31
2019-04-14T11:35:04.539Z,39.20
2019-04-14T11:36:04.531Z,37.64
2019-04-14T11:37:27.653Z,37.64
2019-04-14T11:38:04.557Z,36.32
2019-04-14T11:39:04.519Z,40.12
2019-04-14T11:40:04.563Z,43.16
2019-04-14T11:41:04.489Z,42.90
2019-04-14T11:42:04.627Z,42.59
2019-04-14T11:43:04.462Z,41.00
2019-04-14T11:44:04.491Z,40.37
2019-04-14T11:45:04.510Z,40.30
2019-04-14T11:46:04.426Z,39.62
2019-04-14T11:47:04.418Z,39.78
2019-04-14T11:48:36.331Z,41.61
2019-04-14T11:49:04.396Z,43.06
2019-04-14T11:50:04.393Z,42.98
2019-04-14T11:51:04.416Z,40.07
2019-04-14T11:52:04.604Z,38.51
2019-04-14T11:53:07.826Z,37.87
2019-04-14T11:54:04.409Z,35.86
2019-04-14T11:55:04.321Z,37.00
2019-04-14T11:56:04.535Z,37.17
2019-04-14T11:57:04.388Z,35.90
2019-04-14T11:58:11.652Z,35.97
2019-04-14T11:59:04.319Z,36.41
2019-04-14T12:00:04.393Z,40.53
2019-04-14T12:01:04.270Z,42.77
2019-04-14T12:02:04.258Z,44.35
2019-04-14T12:03:08.227Z,43.16
2019-04-14T12:04:04.235Z,44.78
2019-04-14T12:05:04.214Z,41.61
2019-04-14T12:06:04.212Z,37.77
2019-04-14T12:07:04.264Z,38.06
2019-04-14T12:08:04.251Z,38.46
2019-04-14T12:09:04.226Z,37.98
2019-04-14T12:10:04.226Z,36.25
2019-04-14T12:11:04.171Z,38.58
2019-04-14T12:12:04.141Z,41.41
2019-04-14T12:13:11.807Z,43.08
2019-04-14T12:14:04.127Z,44.73
2019-04-14T12:15:04.123Z,44.35
2019-04-14T12:16:04.192Z,43.44
2019-04-14T12:17:04.128Z,45.31
2019-04-14T12:18:05.148Z,45.31
2019-04-14T12:19:04.085Z,44.41
2019-04-14T12:20:04.075Z,45.51
2019-04-14T12:21:04.073Z,43.59
2019-04-14T12:22:08.611Z,43.16
2019-04-14T12:23:04.715Z,40.19
2019-04-14T12:24:04.051Z,41.59
2019-04-14T12:25:04.001Z,42.85
2019-04-14T12:26:05.475Z,44.55
2019-04-14T12:27:04.080Z,46.29
2019-04-14T12:28:04.778Z,46.51
2019-04-14T12:29:05.168Z,47.17
2019-04-14T12:30:04.030Z,47.50
2019-04-14T12:31:04.115Z,48.11
2019-04-14T12:32:04.018Z,48.27
2019-04-14T12:33:04.173Z,46.94
2019-04-14T12:34:04.070Z,47.23
2019-04-14T12:35:03.912Z,45.28
2019-04-14T12:36:03.946Z,41.31
2019-04-14T12:37:03.933Z,41.02
2019-04-14T12:38:03.898Z,39.83
2019-04-14T12:39:03.950Z,38.75
2019-04-14T12:40:04.861Z,40.64
2019-04-14T12:41:04.433Z,41.65
2019-04-14T12:42:03.822Z,44.06
2019-04-14T12:43:03.986Z,45.10
2019-04-14T12:44:03.821Z,45.61
2019-04-14T12:45:03.802Z,45.72
2019-04-14T12:46:06.194Z,45.72
2019-04-14T12:47:03.803Z,45.20
2019-04-14T12:48:03.813Z,41.63
2019-04-14T12:49:03.794Z,41.23
2019-04-14T12:50:03.798Z,42.55
2019-04-14T12:51:03.819Z,43.16
2019-04-14T12:52:03.732Z,42.86
2019-04-14T12:53:05.177Z,42.80
2019-04-14T12:54:03.823Z,43.32
2019-04-14T12:55:03.679Z,43.43
2019-04-14T12:56:03.701Z,41.47
2019-04-14T12:57:03.683Z,40.32
2019-04-14T12:58:03.687Z,40.00
2019-04-14T12:59:03.632Z,40.00
2019-04-14T13:00:03.635Z,39.28
2019-04-14T13:01:03.608Z,40.78
2019-04-14T13:02:03.646Z,43.14
2019-04-14T13:03:14.291Z,44.38
2019-04-14T13:04:03.570Z,44.63
2019-04-14T13:05:03.600Z,44.78
2019-04-14T13:06:03.568Z,44.90
2019-04-14T13:07:03.542Z,44.71
2019-04-14T13:08:04.169Z,45.35
2019-04-14T13:09:03.570Z,46.27
2019-04-14T13:10:03.557Z,46.33
2019-04-14T13:11:03.506Z,43.67
2019-04-14T13:12:03.527Z,44.76
2019-04-14T13:13:03.585Z,45.18
2019-04-14T13:14:03.528Z,45.61
2019-04-14T13:15:03.513Z,45.04
2019-04-14T13:16:03.488Z,46.97
2019-04-14T13:17:03.455Z,43.02
2019-04-14T13:18:05.229Z,41.05
2019-04-14T13:19:03.409Z,39.12